Track Рябухина Марина 4343

Time Latitude Longitude Accuracy (66% radius in meters) Altitude (meters) Speed (km/hour) Bearing (degrees) Battery (%) GPS flag
10:20:18 51.778770 39.293743 12 101.99766639287 0.13626652956009 180.21266174316 83 1 delete
10:20:12 51.778772 39.293736 6 102.12207004539 0.012590941973031 11.057019233704 83 1 delete
10:20:06 51.778776 39.293763 8 102.62427274967 0.041658736765385 11.057019233704 83 1 delete
10:20:03 51.778786 39.293775 6 102.64916830178 0.15695628523827 11.057019233704 83 1 delete
10:20:00 51.778789 39.293763 6 102.77412320632 0.0013530881842598 11.057019233704 83 1 delete
10:19:54 51.778789 39.293750 6 103.16115754175 0.15492753684521 142.37590026855 83 1 delete
10:19:45 51.778807 39.293726 6 103.3157124241 0.25150907039642 330.2624206543 83 1 delete
10:19:39 51.778794 39.293733 4 103.17692612 0.42032101750374 176.80708312988 83 1 delete
10:19:36 51.778801 39.293737 4 103.09715793013 0.4413637816906 348.18194580078 83 1 delete
10:19:33 51.778793 39.293737 6 103.07072283582 0.33883428573608 238.16120910645 83 1 delete
10:19:27 51.778777 39.293703 6 103.20489024845 0.88770663738251 345.15896606445 83 1 delete
10:19:18 51.778772 39.293702 6 103.36079954903 0.22904399037361 273.77758789062 83 1 delete
10:19:12 51.778777 39.293707 6 103.08384245145 0.22093231976032 275.15414428711 83 1 delete
10:19:06 51.778777 39.293721 8 102.81686006565 0.018265422433615 356.2873840332 83 1 delete
10:19:00 51.778771 39.293723 6 102.36192143237 0.26651605963707 356.2873840332 83 1 delete
10:18:51 51.778753 39.293739 8 102.43994230922 0.1443427503109 239.10501098633 83 1 delete
10:18:45 51.778751 39.293749 8 102.61285264614 0.12162152677774 36.748012542725 83 1 delete
10:18:39 51.778751 39.293751 6 103.01314041136 0.14952988922596 36.748012542725 83 1 delete
10:18:33 51.778757 39.293749 4 102.93069624029 0.022308934479952 36.748012542725 83 1 delete
10:18:24 51.778745 39.293747 8 103.08805932193 0.27170795202255 87.995399475098 83 1 delete
10:18:18 51.778742 39.293717 8 102.69663267021 0.16288451850414 242.04302978516 83 1 delete
10:18:12 51.778743 39.293716 16 102.40767971301 0.027171229943633 356.73428344727 83 1 delete
10:17:54 51.778752 39.293693 8 102.37385125863 0.25287115573883 337.96112060547 83 1 delete
10:17:48 51.778745 39.293692 8 102.63313500212 0.27245280146599 286.04196166992 83 1 delete
10:17:33 51.778761 39.293729 8 103.08228505533 0.39869129657745 212.28581237793 83 1 delete
10:17:27 51.778784 39.293716 8 103.34156300035 0.19136266410351 259.49084472656 83 1 delete
10:17:21 51.778800 39.293730 8 103.36007338609 0.70429337024689 234.45556640625 83 1 delete
10:17:15 51.778821 39.293763 6 103.37116714067 0.85183650255203 249.32588195801 83 1 delete
10:17:12 51.778832 39.293769 8 103.40563222782 0.44466441869736 140.07147216797 83 1 delete
10:17:09 51.778841 39.293794 6 103.41746669635 0.27939170598984 123.26982116699 83 1 delete
10:17:06 51.778848 39.293785 6 103.41825083856 0.57720327377319 139.42021179199 83 1 delete
10:17:00 51.778864 39.293760 8 103.25804669795 0.25301694869995 221.5022277832 83 1 delete
10:16:57 51.778864 39.293757 8 103.37354423937 0.21412217617035 168.30140686035 83 1 delete
10:16:54 51.778867 39.293743 12 103.38909522045 0.47737637162209 168.30140686035 83 1 delete
10:16:51 51.778883 39.293724 12 103.53734987684 1.2200473546982 163.23260498047 83 1 delete
10:16:48 51.778952 39.293662 12 103.68031103641 0.028655264526606 272.5153503418 83 1 delete
10:16:45 51.778978 39.293633 12 103.63085770209 2.1043004989624 157.13903808594 83 1 delete
10:16:42 51.779049 39.293583 12 103.44714322086 1.7828145027161 166.61659240723 83 1 delete
10:16:39 51.779086 39.293521 8 103.27441882728 1.5799943208694 164.26138305664 83 1 delete
10:16:36 51.779097 39.293413 12 103.16830560299 1.521062374115 118.06858062744 83 1 delete
10:16:33 51.779104 39.293351 8 103.22765477441 1.4777711629868 51.997993469238 83 1 delete
10:16:30 51.779080 39.293297 8 103.37408136374 1.4858355522156 73.296257019043 83 1 delete
10:16:27 51.779070 39.293230 8 103.37842291142 1.542827963829 79.455169677734 83 1 delete
10:16:24 51.779045 39.293158 8 103.32836822726 1.6576390266418 42.60457611084 83 1 delete
10:16:21 51.779006 39.293069 8 103.31835172215 1.7092813253403 43.305671691895 83 1 delete
10:16:18 51.778971 39.292992 12 103.13900740949 1.7936279773712 47.70724105835 83 1 delete
10:16:15 51.778930 39.292922 8 103.07685936439 1.8011145591736 350.6706237793 83 1 delete
10:16:12 51.778890 39.292906 8 103.10633420984 1.7366719245911 52.318943023682 83 1 delete
10:16:09 51.778866 39.292816 8 103.09616662115 1.6325684785843 55.855781555176 83 1 delete
10:16:06 51.778827 39.292742 8 103.18142434286 1.5412110090256 27.624340057373 83 1 delete